createdAt,value
2023-05-10T00:05:49.042Z,6.7
2023-05-10T00:16:00.268Z,6.68
2023-05-10T00:25:59.098Z,4.99
2023-05-10T00:36:07.904Z,5.36
2023-05-10T00:46:16.730Z,4.17
2023-05-10T00:56:25.457Z,4
2023-05-10T01:06:34.138Z,7.37
2023-05-10T01:16:42.989Z,6.2
2023-05-10T01:26:51.749Z,4.92
2023-05-10T01:37:00.335Z,6.96
2023-05-10T01:47:09.155Z,8.44
2023-05-10T01:57:18.021Z,8.31
2023-05-10T02:07:26.733Z,9.47
2023-05-10T02:17:35.591Z,10.77
2023-05-10T02:27:44.432Z,9.62
2023-05-10T02:37:53.149Z,7.9
2023-05-10T02:48:01.964Z,10.14
2023-05-10T02:58:11.905Z,9.5
2023-05-10T03:08:20.576Z,10.09
2023-05-10T03:18:29.326Z,9.88
2023-05-10T03:28:38.318Z,8.63
2023-05-10T03:38:47.786Z,9.94
2023-05-10T03:48:56.509Z,6.68
2023-05-10T03:59:05.246Z,8.59
2023-05-10T04:09:14.024Z,5.06
2023-05-10T04:19:23.288Z,4.6
2023-05-10T04:29:32.028Z,4.81
2023-05-10T04:39:42.269Z,4.33
2023-05-10T04:49:48.937Z,5
2023-05-10T04:59:57.257Z,4.14
2023-05-10T05:10:06.170Z,4.48
2023-05-10T05:20:15.224Z,5.89
2023-05-10T05:30:23.581Z,5.33
2023-05-10T05:40:32.346Z,4.48
2023-05-10T05:50:41.175Z,6.72
2023-05-10T06:00:49.866Z,5.89
2023-05-10T06:10:58.713Z,6.92
2023-05-10T06:20:58.988Z,6.82
2023-05-10T06:31:07.798Z,6.99
2023-05-10T06:41:16.656Z,8.61
2023-05-10T06:51:25.017Z,6.56
2023-05-10T07:01:33.757Z,7.57
2023-05-10T07:11:42.566Z,5.03
2023-05-10T07:21:51.237Z,7.09
2023-05-10T07:31:59.733Z,8.23
2023-05-10T07:42:08.340Z,6.97
2023-05-10T07:52:17.244Z,7.43
2023-05-10T08:02:25.641Z,17.73
2023-05-10T08:12:34.385Z,8
2023-05-10T08:22:43.136Z,5.28
2023-05-10T08:32:51.648Z,7.26
2023-05-10T08:43:00.423Z,8.73
2023-05-10T08:53:09.095Z,7.82
2023-05-10T09:03:17.852Z,4.06
2023-05-10T09:13:26.562Z,5.7
2023-05-10T09:23:35.183Z,5.26
2023-05-10T09:33:43.964Z,7.79
2023-05-10T09:43:52.817Z,7.47
2023-05-10T09:54:01.614Z,7.08
2023-05-10T10:04:10.301Z,5.95
2023-05-10T10:14:19.076Z,10.69
2023-05-10T10:24:27.663Z,11.69
2023-05-10T10:34:36.249Z,8.88
2023-05-10T10:44:45.514Z,9.87
2023-05-10T10:54:54.784Z,7.29
2023-05-10T11:05:03.593Z,9.06
2023-05-10T11:15:12.422Z,9.14
2023-05-10T11:25:21.028Z,11.09
2023-05-10T11:35:29.813Z,9.65
2023-05-10T11:45:38.494Z,10.8
2023-05-10T11:55:47.179Z,14.62
2023-05-10T12:05:55.901Z,11.56
2023-05-10T12:16:04.464Z,13.41
2023-05-10T12:26:13.197Z,9.85
2023-05-10T12:36:21.274Z,10.38
2023-05-10T12:46:21.702Z,10.4
2023-05-10T12:56:29.506Z,11.1
2023-05-10T13:06:37.247Z,10.99
2023-05-10T13:16:45.063Z,11.17
2023-05-10T13:26:52.744Z,10.86
2023-05-10T13:37:06.419Z,12.15
2023-05-10T13:47:04.241Z,9.32
2023-05-10T13:57:12.136Z,9.74
2023-05-10T14:07:21.127Z,9.03
2023-05-10T14:17:28.971Z,12.03
2023-05-10T14:27:36.778Z,9.18
2023-05-10T14:37:44.856Z,13.92
2023-05-10T14:47:54.047Z,12.23
2023-05-10T14:58:01.988Z,11.07
2023-05-10T15:08:10.556Z,13.49
2023-05-10T15:18:18.535Z,15.88
2023-05-10T15:28:28.306Z,14.4
2023-05-10T15:38:35.720Z,13.65
2023-05-10T15:48:43.574Z,12.84
2023-05-10T15:58:52.012Z,17.23
2023-05-10T16:09:00.168Z,12.27
2023-05-10T16:19:08.834Z,13.02
2023-05-10T16:29:17.726Z,13.05
2023-05-10T16:39:26.514Z,11.25
2023-05-10T16:49:35.181Z,13.46
2023-05-10T16:59:44.042Z,13.99
2023-05-10T17:09:52.481Z,17.42
2023-05-10T17:20:01.720Z,13.04
2023-05-10T17:30:23.995Z,13.33
2023-05-10T17:40:19.977Z,13.75
2023-05-10T17:50:23.861Z,13.86
2023-05-10T18:00:28.601Z,13.32
2023-05-10T18:10:47.839Z,16.86
2023-05-10T18:20:36.305Z,13.78
2023-05-10T18:30:46.639Z,13.86
2023-05-10T18:40:51.598Z,14.27
2023-05-10T18:51:01.497Z,14.41
2023-05-10T19:01:01.544Z,16.11
2023-05-10T19:11:10.191Z,15.79
2023-05-10T19:21:22.259Z,13.52
2023-05-10T19:31:21.277Z,18.3
2023-05-10T19:41:30.977Z,14.55
2023-05-10T19:51:42.273Z,15.39
2023-05-10T20:01:42.401Z,13.88
2023-05-10T20:11:41.125Z,14.72
2023-05-10T20:21:50.275Z,14.97
2023-05-10T20:31:59.092Z,14.03
2023-05-10T20:42:08.671Z,19.81
2023-05-10T20:52:17.294Z,16.03
2023-05-10T21:02:25.800Z,16.32
2023-05-10T21:12:40.763Z,17.87
2023-05-10T21:22:42.124Z,16.04
2023-05-10T21:32:42.545Z,14.72
2023-05-10T21:42:48.517Z,14.45
2023-05-10T21:52:47.700Z,15.36
2023-05-10T22:02:54.865Z,15.55
2023-05-10T22:12:56.874Z,17.02
2023-05-10T22:22:55.912Z,13.77
2023-05-10T22:33:07.073Z,14.72
2023-05-10T22:43:15.521Z,15.6
2023-05-10T22:53:23.251Z,15.67
2023-05-10T23:03:24.742Z,15.11
2023-05-10T23:13:33.442Z,15.32
2023-05-10T23:23:42.009Z,12.63
2023-05-10T23:33:50.466Z,15.23
2023-05-10T23:43:59.166Z,12.85
2023-05-10T23:54:07.861Z,10.7
